Time;durP1;ratioP1;P1;durP2;ratioP2;P2;SDS_P1;SDS_P2;PMS_P1;PMS_P2;Temp;Humidity;BMP_temperature;BMP_pressure;BME280_temperature;BME280_humidity;BME280_pressure;Samples;Min_cycle;Max_cycle;Signal;HPM_P1;HPM_P2
2022/10/19 00:01:28;;;;;;;20.00;10.28;;;10.70;93.50;;;;;;1924602;74;21414;-49
2022/10/19 00:03:57;;;;;;;20.10;10.80;;;10.70;93.50;;;;;;1924684;74;21014;-52
2022/10/19 00:06:34;;;;;;;16.62;9.68;;;10.70;93.40;;;;;;1924713;74;21002;-51
2022/10/19 00:09:06;;;;;;;15.63;10.10;;;10.70;93.40;;;;;;1924549;74;21047;-50
2022/10/19 00:11:38;;;;;;;17.50;9.88;;;10.70;93.50;;;;;;1924604;74;21058;-49
2022/10/19 00:14:08;;;;;;;46.02;11.70;;;10.70;93.50;;;;;;1924585;74;21096;-48
2022/10/19 00:16:38;;;;;;;26.20;10.20;;;10.70;93.40;;;;;;1924679;74;20998;-49
2022/10/19 00:19:10;;;;;;;24.85;10.93;;;10.60;93.20;;;;;;1924529;74;21128;-50
2022/10/19 00:21:40;;;;;;;25.10;11.60;;;10.50;93.30;;;;;;1924615;74;21508;-50
2022/10/19 00:24:09;;;;;;;29.65;11.40;;;10.50;93.40;;;;;;1924742;74;20994;-50
2022/10/19 00:26:38;;;;;;;33.08;11.80;;;10.50;93.50;;;;;;1924723;74;21011;-49
2022/10/19 00:29:07;;;;;;;37.93;12.05;;;10.50;93.50;;;;;;1924603;74;21027;-50
2022/10/19 00:31:36;;;;;;;29.07;12.78;;;10.50;93.60;;;;;;1924722;74;20999;-48
2022/10/19 00:34:05;;;;;;;23.90;12.05;;;10.60;93.60;;;;;;1924664;74;21124;-51
2022/10/19 00:36:37;;;;;;;30.12;12.37;;;10.60;93.60;;;;;;1924725;74;21044;-49
2022/10/19 00:39:08;;;;;;;63.38;14.87;;;10.60;93.60;;;;;;1924684;74;21006;-48
2022/10/19 00:41:38;;;;;;;27.32;10.90;;;10.60;93.50;;;;;;1924699;74;21088;-50
2022/10/19 00:44:13;;;;;;;27.25;10.70;;;10.60;93.30;;;;;;1924708;74;20979;-51
2022/10/19 00:46:44;;;;;;;36.53;10.63;;;10.40;93.20;;;;;;1922650;74;21108;-49
2022/10/19 00:49:19;;;;;;;42.80;11.83;;;10.40;93.40;;;;;;1924719;74;21081;-50
2022/10/19 00:51:52;;;;;;;37.98;12.50;;;10.40;93.50;;;;;;1924650;73;21067;-50
2022/10/19 00:54:22;;;;;;;23.32;12.13;;;10.40;93.50;;;;;;1924731;74;21014;-49
2022/10/19 00:56:54;;;;;;;33.35;10.38;;;10.40;93.50;;;;;;1924709;74;20987;-52
2022/10/19 00:59:24;;;;;;;25.37;8.53;;;10.40;93.60;;;;;;1924658;74;21031;-50
2022/10/19 01:01:54;;;;;;;10.98;7.95;;;10.40;93.60;;;;;;1924704;74;21160;-50
2022/10/19 01:04:25;;;;;;;29.12;8.65;;;10.40;93.60;;;;;;1924710;74;21076;-52
2022/10/19 01:06:55;;;;;;;15.72;8.20;;;10.40;93.60;;;;;;1924689;74;21073;-50
2022/10/19 01:09:24;;;;;;;13.90;7.92;;;10.40;93.50;;;;;;1924646;74;21507;-51
2022/10/19 01:12:17;;;;;;;17.98;8.35;;;10.40;93.60;;;;;;1924770;74;21100;-50
2022/10/19 01:15:17;;;;;;;13.38;9.08;;;10.40;93.60;;;;;;1924501;74;21069;-49
2022/10/19 01:18:10;;;;;;;14.75;8.20;;;10.40;93.60;;;;;;1924812;74;21117;-48
2022/10/19 01:20:44;;;;;;;13.55;8.95;;;10.40;93.60;;;;;;1924191;74;21021;-49
2022/10/19 01:23:44;;;;;;;14.45;8.33;;;10.40;93.60;;;;;;1924873;74;21191;-50
2022/10/19 01:26:28;;;;;;;13.90;8.10;;;10.40;93.60;;;;;;1924792;74;21096;-50
2022/10/19 01:29:18;;;;;;;13.15;8.08;;;10.40;93.50;;;;;;1924978;74;21010;-50
2022/10/19 01:31:53;;;;;;;16.90;8.60;;;10.40;93.50;;;;;;1924793;74;21023;-49
2022/10/19 01:34:24;;;;;;;14.47;8.70;;;10.40;93.50;;;;;;1924461;74;21011;-48
2022/10/19 01:37:05;;;;;;;13.08;8.88;;;10.40;93.50;;;;;;1924828;74;20999;-49
2022/10/19 01:39:39;;;;;;;15.98;9.03;;;10.40;93.60;;;;;;1924639;74;21056;-50
2022/10/19 01:42:17;;;;;;;14.00;8.78;;;10.40;93.60;;;;;;1924846;74;21104;-49
2022/10/19 01:45:04;;;;;;;16.55;9.28;;;10.40;93.60;;;;;;1917415;74;21477;-49
2022/10/19 01:47:45;;;;;;;19.30;9.60;;;10.40;93.80;;;;;;1924728;74;21084;-51
2022/10/19 01:50:19;;;;;;;17.57;9.95;;;10.50;93.70;;;;;;1924683;74;21014;-49
2022/10/19 01:52:50;;;;;;;17.80;10.90;;;10.40;93.70;;;;;;1923966;74;21011;-50
2022/10/19 01:55:20;;;;;;;25.50;11.22;;;10.40;93.70;;;;;;1924776;74;21002;-49
2022/10/19 01:58:01;;;;;;;23.77;11.83;;;10.50;93.70;;;;;;1924645;74;21081;-51
2022/10/19 02:00:33;;;;;;;24.50;11.60;;;10.50;93.80;;;;;;1924665;74;21018;-48
2022/10/19 02:03:03;;;;;;;25.27;12.40;;;10.50;93.80;;;;;;1924702;74;21007;-49
2022/10/19 02:05:34;;;;;;;48.30;14.58;;;10.50;93.80;;;;;;1924741;74;21007;-49
2022/10/19 02:08:08;;;;;;;37.80;11.93;;;10.50;93.80;;;;;;1924775;74;21082;-51
2022/10/19 02:10:40;;;;;;;65.25;14.40;;;10.50;93.70;;;;;;1924463;74;21026;-49
2022/10/19 02:13:10;;;;;;;119.13;15.93;;;10.40;93.70;;;;;;1924881;74;21077;-49
2022/10/19 02:15:41;;;;;;;39.42;12.50;;;10.40;93.70;;;;;;1924668;74;21183;-51
2022/10/19 02:18:16;;;;;;;43.87;12.68;;;10.40;93.80;;;;;;1924674;74;21058;-49
2022/10/19 02:20:46;;;;;;;31.57;11.88;;;10.40;93.90;;;;;;1924787;74;21128;-50
2022/10/19 02:23:19;;;;;;;41.42;11.95;;;10.30;94.00;;;;;;1915055;74;21051;-48
2022/10/19 02:25:48;;;;;;;38.38;12.03;;;10.40;94.00;;;;;;1905239;75;21070;-49
2022/10/19 02:28:18;;;;;;;24.67;11.10;;;10.40;94.00;;;;;;1905227;75;21036;-48
2022/10/19 02:30:47;;;;;;;35.25;13.25;;;10.40;93.90;;;;;;1905224;75;21003;-49
2022/10/19 02:33:16;;;;;;;36.90;12.13;;;10.40;93.90;;;;;;1905242;75;21061;-51
2022/10/19 02:35:46;;;;;;;39.27;12.55;;;10.40;93.90;;;;;;1905243;75;21007;-48
2022/10/19 02:38:18;;;;;;;31.85;12.47;;;10.40;93.90;;;;;;1905237;75;21358;-49
2022/10/19 02:41:05;;;;;;;24.50;11.05;;;10.30;94.00;;;;;;1905246;75;21065;-50
2022/10/19 02:43:37;;;;;;;62.05;12.70;;;10.30;94.00;;;;;;1878308;74;21077;-52
2022/10/19 02:46:18;;;;;;;26.97;11.38;;;10.30;94.10;;;;;;1905282;75;21070;-50
2022/10/19 02:48:49;;;;;;;23.25;12.60;;;10.30;94.00;;;;;;1876609;74;21113;-51
2022/10/19 02:51:36;;;;;;;27.65;11.55;;;10.30;94.00;;;;;;1905275;75;21069;-49
2022/10/19 02:54:07;;;;;;;34.67;13.13;;;10.30;93.90;;;;;;1905267;74;21077;-50
2022/10/19 02:56:36;;;;;;;24.72;10.60;;;10.20;93.50;;;;;;1905263;75;21161;-49
2022/10/19 02:59:05;;;;;;;24.60;11.65;;;10.10;93.10;;;;;;1905220;75;20995;-50
2022/10/19 03:01:34;;;;;;;28.05;10.28;;;10.00;93.60;;;;;;1905229;75;21004;-51
2022/10/19 03:04:03;;;;;;;22.45;9.75;;;10.00;93.80;;;;;;1905266;75;21019;-51
2022/10/19 03:06:32;;;;;;;20.70;9.75;;;10.00;93.50;;;;;;1905279;75;21003;-49
2022/10/19 03:09:01;;;;;;;39.98;11.55;;;9.90;93.40;;;;;;1905287;75;21034;-50
2022/10/19 03:11:31;;;;;;;33.48;9.88;;;9.80;93.60;;;;;;1905253;75;21036;-50
2022/10/19 03:14:00;;;;;;;20.05;7.55;;;9.70;93.80;;;;;;1905159;75;21023;-49
2022/10/19 03:16:29;;;;;;;29.63;9.25;;;9.70;93.60;;;;;;1905321;75;20999;-48
2022/10/19 03:18:57;;;;;;;25.65;10.08;;;9.60;93.60;;;;;;1905168;75;21000;-49
2022/10/19 03:21:26;;;;;;;26.23;9.85;;;9.60;93.80;;;;;;1905223;75;21055;-47
2022/10/19 03:23:56;;;;;;;28.77;9.45;;;9.60;93.80;;;;;;1905286;75;21028;-50
2022/10/19 03:26:25;;;;;;;23.83;9.55;;;9.60;93.80;;;;;;1905203;75;21011;-51
2022/10/19 03:28:54;;;;;;;18.77;8.90;;;9.60;94.00;;;;;;1905260;75;21105;-49
2022/10/19 03:31:23;;;;;;;35.33;9.68;;;9.60;94.10;;;;;;1905146;75;21039;-51
2022/10/19 03:33:52;;;;;;;25.48;9.53;;;9.70;94.20;;;;;;1905122;75;21101;-49
2022/10/19 03:36:24;;;;;;;28.60;8.23;;;9.80;94.10;;;;;;1905213;75;21008;-51
2022/10/19 03:38:58;;;;;;;23.60;8.28;;;9.80;94.10;;;;;;1905143;75;21020;-51
2022/10/19 03:41:30;;;;;;;30.02;10.32;;;9.80;94.10;;;;;;1905141;75;21036;-49
2022/10/19 03:43:59;;;;;;;41.05;7.55;;;9.80;94.00;;;;;;1905098;74;21081;-49
2022/10/19 03:46:28;;;;;;;38.23;9.58;;;9.80;94.00;;;;;;1905250;75;21028;-48
2022/10/19 03:48:57;;;;;;;23.40;7.70;;;9.80;93.40;;;;;;1905124;75;21055;-51
2022/10/19 03:51:28;;;;;;;25.57;8.35;;;9.70;93.50;;;;;;1905462;74;21117;-50
2022/10/19 03:54:03;;;;;;;18.95;8.95;;;9.60;93.70;;;;;;1905349;75;21140;-50
2022/10/19 03:56:32;;;;;;;31.52;7.90;;;9.60;93.90;;;;;;1905437;75;21020;-50
2022/10/19 03:59:03;;;;;;;41.18;10.70;;;9.60;93.70;;;;;;1905395;75;21023;-51
2022/10/19 04:01:37;;;;;;;44.08;9.53;;;9.60;93.90;;;;;;1905415;75;20984;-52
2022/10/19 04:04:09;;;;;;;44.00;8.88;;;9.70;94.00;;;;;;1905546;75;21023;-49
2022/10/19 04:06:40;;;;;;;49.15;9.68;;;9.70;93.80;;;;;;1905619;75;21041;-50
2022/10/19 04:09:14;;;;;;;84.03;13.05;;;9.70;93.70;;;;;;1905345;75;21087;-51
2022/10/19 04:11:44;;;;;;;38.42;9.80;;;9.70;93.80;;;;;;1905627;74;21011;-50
2022/10/19 04:14:15;;;;;;;26.77;11.30;;;9.70;94.00;;;;;;1905348;74;21129;-51
2022/10/19 04:16:44;;;;;;;29.92;11.48;;;9.70;94.10;;;;;;1905381;74;21023;-48
2022/10/19 04:19:15;;;;;;;32.25;9.63;;;9.70;94.10;;;;;;1905365;75;21004;-50
2022/10/19 04:21:46;;;;;;;40.95;11.85;;;9.80;94.10;;;;;;1905384;75;21008;-50
2022/10/19 04:24:16;;;;;;;31.52;10.23;;;9.90;94.10;;;;;;1905370;75;21059;-50
2022/10/19 04:26:51;;;;;;;35.13;10.98;;;9.90;94.10;;;;;;1905470;75;21482;-50
2022/10/19 04:29:23;;;;;;;48.23;12.47;;;10.00;94.20;;;;;;1905477;75;21019;-50
2022/10/19 04:31:53;;;;;;;91.28;14.45;;;10.10;94.20;;;;;;1905532;75;20999;-51
2022/10/19 04:34:23;;;;;;;82.40;15.88;;;10.10;93.90;;;;;;1905340;75;21023;-49
2022/10/19 04:36:53;;;;;;;79.55;13.78;;;10.10;94.20;;;;;;1905350;75;21016;-50
2022/10/19 04:39:22;;;;;;;85.15;16.97;;;10.10;94.10;;;;;;1905448;75;21057;-48
2022/10/19 04:41:51;;;;;;;39.70;14.25;;;10.10;94.10;;;;;;1905443;75;21076;-49
2022/10/19 04:44:20;;;;;;;73.37;16.05;;;10.20;94.20;;;;;;1905503;75;21043;-48
2022/10/19 04:46:49;;;;;;;47.60;14.47;;;10.20;94.30;;;;;;1905491;75;21004;-50
2022/10/19 04:49:19;;;;;;;69.07;16.02;;;10.20;93.90;;;;;;1905318;75;21180;-52
2022/10/19 04:51:48;;;;;;;35.75;14.63;;;10.20;93.80;;;;;;1905459;75;21016;-52
2022/10/19 04:54:17;;;;;;;71.40;16.45;;;10.20;94.10;;;;;;1905454;75;21144;-49
2022/10/19 04:56:47;;;;;;;42.40;14.70;;;10.20;94.40;;;;;;1905365;75;21027;-49
2022/10/19 04:59:16;;;;;;;39.03;15.65;;;10.20;94.40;;;;;;1905351;75;21039;-50
2022/10/19 05:01:45;;;;;;;38.28;17.12;;;10.30;94.40;;;;;;1905451;75;21016;-48
2022/10/19 05:04:14;;;;;;;46.08;18.55;;;10.30;94.30;;;;;;1905331;75;21081;-49
2022/10/19 05:06:43;;;;;;;46.40;18.85;;;10.30;94.10;;;;;;1905389;75;21023;-49
2022/10/19 05:09:12;;;;;;;34.88;14.78;;;10.30;94.20;;;;;;1905277;74;21148;-52
2022/10/19 05:11:41;;;;;;;35.73;14.15;;;10.30;94.00;;;;;;1905343;74;20995;-52
2022/10/19 05:14:10;;;;;;;20.65;11.25;;;10.30;94.30;;;;;;1905270;75;21391;-50
2022/10/19 05:16:40;;;;;;;24.80;13.45;;;10.30;94.30;;;;;;1905303;75;21015;-50
2022/10/19 05:19:13;;;;;;;22.87;12.45;;;10.40;94.30;;;;;;1905225;75;21031;-49
2022/10/19 05:21:42;;;;;;;25.60;14.07;;;10.40;94.20;;;;;;1905312;75;21039;-49
2022/10/19 05:24:12;;;;;;;28.87;15.08;;;10.50;94.30;;;;;;1906743;74;21120;-50
2022/10/19 05:26:41;;;;;;;30.17;15.95;;;10.50;94.20;;;;;;1924617;74;21441;-52
2022/10/19 05:29:13;;;;;;;33.33;18.30;;;10.50;94.10;;;;;;1924540;74;21022;-51
2022/10/19 05:31:42;;;;;;;32.93;17.75;;;10.60;94.10;;;;;;1924710;74;21128;-52
2022/10/19 05:34:11;;;;;;;48.55;22.00;;;10.60;94.30;;;;;;1924698;74;21132;-52
2022/10/19 05:36:40;;;;;;;42.48;20.32;;;10.70;94.30;;;;;;1924649;74;21010;-51
2022/10/19 05:39:17;;;;;;;36.03;18.73;;;10.70;93.80;;;;;;1924558;74;21053;-50
2022/10/19 05:41:47;;;;;;;35.60;19.15;;;10.70;94.10;;;;;;1924577;74;21081;-50
2022/10/19 05:44:21;;;;;;;31.93;17.48;;;10.80;94.20;;;;;;1924683;74;21084;-52
2022/10/19 05:46:51;;;;;;;28.67;17.02;;;10.90;94.20;;;;;;1924987;74;21054;-49
2022/10/19 05:49:22;;;;;;;26.80;15.83;;;11.00;94.20;;;;;;1924657;74;21082;-50
2022/10/19 05:51:51;;;;;;;28.17;14.78;;;11.00;94.20;;;;;;1924629;74;20982;-49
2022/10/19 05:54:20;;;;;;;20.20;11.85;;;11.10;94.30;;;;;;1924594;74;21452;-50
2022/10/19 05:56:49;;;;;;;20.55;10.20;;;11.10;94.10;;;;;;1924622;74;21011;-52
2022/10/19 05:59:20;;;;;;;18.90;10.38;;;11.20;94.10;;;;;;1924597;74;21003;-51
2022/10/19 06:01:49;;;;;;;13.08;9.45;;;11.30;93.70;;;;;;1924662;74;21069;-53
2022/10/19 06:04:18;;;;;;;12.98;7.62;;;11.20;93.60;;;;;;1924565;74;21116;-51
2022/10/19 06:06:47;;;;;;;19.15;12.65;;;11.20;93.70;;;;;;1924539;74;21042;-53
2022/10/19 06:09:16;;;;;;;12.45;8.10;;;11.30;94.00;;;;;;1924546;74;21146;-50
2022/10/19 06:11:45;;;;;;;11.63;8.45;;;11.40;94.00;;;;;;1924637;74;21105;-53
2022/10/19 06:14:16;;;;;;;11.68;6.97;;;11.50;93.90;;;;;;1924530;74;21039;-54
2022/10/19 06:16:45;;;;;;;5.78;4.85;;;11.50;93.70;;;;;;1924579;74;21016;-49
2022/10/19 06:19:15;;;;;;;7.20;4.72;;;11.50;93.60;;;;;;1924498;74;21069;-51
2022/10/19 06:21:44;;;;;;;8.60;6.12;;;11.50;93.70;;;;;;1924682;74;21023;-53
2022/10/19 06:24:14;;;;;;;17.12;11.25;;;11.50;93.70;;;;;;1924590;74;21034;-51
2022/10/19 06:26:43;;;;;;;9.53;8.23;;;11.50;93.80;;;;;;1907981;74;21055;-54
2022/10/19 06:29:12;;;;;;;9.13;5.45;;;11.60;93.80;;;;;;1905191;75;20999;-52
2022/10/19 06:31:41;;;;;;;6.60;5.22;;;11.70;93.90;;;;;;1905243;75;21466;-50
2022/10/19 06:34:11;;;;;;;6.60;5.17;;;11.70;93.80;;;;;;1905221;74;21102;-52
2022/10/19 06:36:40;;;;;;;6.83;5.45;;;11.80;93.80;;;;;;1905292;75;21197;-52
2022/10/19 06:39:09;;;;;;;6.42;5.22;;;11.80;93.90;;;;;;1905303;75;21027;-51
2022/10/19 06:41:38;;;;;;;5.95;4.22;;;11.90;93.80;;;;;;1905296;75;21054;-50
2022/10/19 06:44:12;;;;;;;10.72;9.63;;;12.00;93.80;;;;;;1896064;74;21023;-51
2022/10/19 06:46:41;;;;;;;13.43;7.60;;;12.00;93.80;;;;;;1905344;75;21106;-49
2022/10/19 06:49:12;;;;;;;8.65;5.87;;;12.10;93.80;;;;;;1905165;75;21031;-50
2022/10/19 06:51:41;;;;;;;7.08;5.22;;;12.20;93.90;;;;;;1905384;75;21015;-49
2022/10/19 06:54:10;;;;;;;7.58;4.72;;;12.30;93.90;;;;;;1905274;75;21004;-52
2022/10/19 06:56:39;;;;;;;7.42;6.25;;;12.40;93.80;;;;;;1905189;75;21437;-50
2022/10/19 06:59:08;;;;;;;7.90;5.45;;;12.50;93.80;;;;;;1905149;75;21112;-52
2022/10/19 07:01:38;;;;;;;7.78;5.75;;;12.60;93.70;;;;;;1905209;75;21074;-51
2022/10/19 07:04:07;;;;;;;29.42;5.37;;;12.70;93.70;;;;;;1905156;75;21032;-50
2022/10/19 07:06:36;;;;;;;7.45;5.30;;;12.80;93.70;;;;;;1905234;74;20984;-51
2022/10/19 07:09:05;;;;;;;8.05;5.12;;;12.90;93.80;;;;;;1905142;75;21019;-50
2022/10/19 07:11:34;;;;;;;6.05;4.85;;;13.00;93.70;;;;;;1905171;75;21512;-53
2022/10/19 07:14:03;;;;;;;5.22;4.53;;;13.20;93.80;;;;;;1905142;75;21008;-53
2022/10/19 07:16:32;;;;;;;24.87;6.97;;;13.20;93.70;;;;;;1905286;75;21019;-52
2022/10/19 07:19:01;;;;;;;45.70;8.68;;;13.30;93.70;;;;;;1905153;75;21011;-50
2022/10/19 07:21:30;;;;;;;13.62;5.47;;;13.40;93.80;;;;;;1905371;74;21032;-53
2022/10/19 07:23:59;;;;;;;76.92;12.15;;;13.50;93.90;;;;;;1905128;75;21011;-53
2022/10/19 07:26:29;;;;;;;19.20;8.65;;;13.60;93.80;;;;;;1914809;74;21121;-52
2022/10/19 07:28:58;;;;;;;17.82;11.55;;;13.70;93.80;;;;;;1924532;74;21155;-53
2022/10/19 07:31:28;;;;;;;18.55;9.00;;;13.80;93.70;;;;;;1924528;74;21409;-52
2022/10/19 07:33:59;;;;;;;16.42;10.35;;;13.80;93.70;;;;;;1924744;74;21002;-51
2022/10/19 07:36:30;;;;;;;20.15;11.73;;;14.00;93.70;;;;;;1924651;74;21074;-53
2022/10/19 07:39:00;;;;;;;28.00;12.73;;;14.00;93.60;;;;;;1924850;74;21440;-50
2022/10/19 07:41:29;;;;;;;44.60;13.43;;;14.10;93.60;;;;;;1924864;74;21051;-52
2022/10/19 07:43:58;;;;;;;21.93;13.13;;;14.20;93.50;;;;;;1924735;74;21472;-51
2022/10/19 07:46:32;;;;;;;20.88;10.98;;;14.30;93.50;;;;;;1924772;74;20982;-50
2022/10/19 07:49:00;;;;;;;16.42;12.47;;;14.40;93.50;;;;;;1924752;74;21519;-54
2022/10/19 07:51:29;;;;;;;17.65;12.55;;;14.50;93.60;;;;;;1924808;74;20999;-54
2022/10/19 07:53:59;;;;;;;21.77;13.98;;;14.60;93.50;;;;;;1924671;74;21131;-53
2022/10/19 07:56:28;;;;;;;24.02;14.28;;;14.70;93.50;;;;;;1924770;74;21048;-51
2022/10/19 07:58:58;;;;;;;14.85;11.48;;;14.70;93.50;;;;;;1924724;74;21023;-51
2022/10/19 08:01:30;;;;;;;25.62;12.60;;;14.80;93.50;;;;;;1924864;74;21026;-51
2022/10/19 08:04:00;;;;;;;13.95;9.73;;;14.90;93.50;;;;;;1924744;74;21031;-52
2022/10/19 08:06:30;;;;;;;13.32;9.55;;;14.90;93.50;;;;;;1924814;74;21026;-53
2022/10/19 08:08:59;;;;;;;14.15;8.95;;;15.00;93.50;;;;;;1924771;74;21007;-54
2022/10/19 08:11:31;;;;;;;15.45;8.73;;;15.10;93.60;;;;;;1924898;74;21054;-54
2022/10/19 08:14:06;;;;;;;12.65;8.83;;;15.20;93.60;;;;;;1924815;74;21043;-54
2022/10/19 08:16:39;;;;;;;13.30;9.75;;;15.30;93.60;;;;;;1924046;74;21034;-53
2022/10/19 08:19:09;;;;;;;13.15;8.10;;;15.40;93.60;;;;;;1924807;74;21019;-53
2022/10/19 08:21:40;;;;;;;14.93;9.63;;;15.50;93.50;;;;;;1924790;74;21100;-50
2022/10/19 08:24:10;;;;;;;17.05;10.08;;;15.50;93.50;;;;;;1924804;74;21010;-54
2022/10/19 08:26:40;;;;;;;22.05;10.35;;;15.60;93.60;;;;;;1918991;74;21032;-54
2022/10/19 08:29:12;;;;;;;13.28;10.13;;;15.60;93.50;;;;;;1905296;74;21019;-54
2022/10/19 08:31:42;;;;;;;13.88;10.00;;;15.70;93.50;;;;;;1905425;74;21102;-53
2022/10/19 08:34:12;;;;;;;20.88;11.43;;;15.80;93.50;;;;;;1905312;74;20999;-52
2022/10/19 08:36:41;;;;;;;21.02;12.63;;;15.90;93.50;;;;;;1905274;75;21019;-53
2022/10/19 08:39:16;;;;;;;19.02;12.63;;;15.90;93.40;;;;;;1905330;75;21024;-53
2022/10/19 08:41:59;;;;;;;15.70;10.55;;;16.00;93.60;;;;;;1905344;74;21028;-53
2022/10/19 08:44:58;;;;;;;17.48;10.63;;;16.10;93.30;;;;;;1900046;75;21091;-50
2022/10/19 08:47:45;;;;;;;13.83;10.00;;;16.20;93.20;;;;;;1905135;74;21032;-52
2022/10/19 08:50:20;;;;;;;17.87;9.25;;;16.30;93.10;;;;;;1905451;74;21031;-54
2022/10/19 08:52:55;;;;;;;13.20;9.90;;;16.30;93.10;;;;;;1905312;75;20999;-51
2022/10/19 08:55:27;;;;;;;13.60;10.08;;;16.30;93.20;;;;;;1899838;75;21035;-55
2022/10/19 08:58:01;;;;;;;15.38;9.35;;;16.40;93.00;;;;;;1905289;74;20988;-53
2022/10/19 09:00:45;;;;;;;15.30;9.80;;;16.40;92.90;;;;;;1905508;75;21004;-53
2022/10/19 09:03:19;;;;;;;11.88;9.40;;;16.50;93.00;;;;;;1905136;74;21485;-49
2022/10/19 09:06:00;;;;;;;10.95;8.38;;;16.60;93.20;;;;;;1905398;74;21035;-54
2022/10/19 09:08:29;;;;;;;16.40;8.80;;;16.70;92.80;;;;;;1904915;74;20984;-54
2022/10/19 09:10:58;;;;;;;12.73;8.50;;;16.80;92.80;;;;;;1905456;75;21022;-53
2022/10/19 09:13:39;;;;;;;16.40;9.50;;;16.80;92.70;;;;;;1905384;75;21023;-54
2022/10/19 09:16:13;;;;;;;13.68;9.43;;;16.80;92.70;;;;;;1905304;74;21187;-53
2022/10/19 09:18:43;;;;;;;16.17;9.73;;;16.90;92.60;;;;;;1905483;75;21454;-54
2022/10/19 09:21:30;;;;;;;15.00;10.80;;;17.00;92.60;;;;;;1905309;75;21027;-53
2022/10/19 09:24:08;;;;;;;19.25;11.53;;;17.00;92.50;;;;;;1903570;74;21109;-54
2022/10/19 09:26:43;;;;;;;15.25;9.53;;;17.10;92.40;;;;;;1905149;75;21770;-51
2022/10/19 09:29:39;;;;;;;33.18;17.82;;;17.20;92.50;;;;;;1899406;75;21015;-53
2022/10/19 09:32:17;;;;;;;16.42;10.82;;;17.20;92.30;;;;;;1903706;75;21083;-54
2022/10/19 09:34:55;;;;;;;11.78;8.23;;;17.30;92.30;;;;;;1904848;74;21102;-55
2022/10/19 09:37:24;;;;;;;14.90;7.55;;;17.30;92.20;;;;;;1905304;75;21571;-52
2022/10/19 09:39:54;;;;;;;9.80;6.72;;;17.40;92.50;;;;;;1905386;75;21003;-51
2022/10/19 09:42:31;;;;;;;8.90;7.10;;;17.40;92.20;;;;;;1905384;75;21008;-54
2022/10/19 09:45:02;;;;;;;8.70;7.10;;;17.50;92.10;;;;;;1905238;75;21031;-54
2022/10/19 09:47:34;;;;;;;12.33;8.18;;;17.60;92.00;;;;;;1905274;74;21007;-54
2022/10/19 09:50:24;;;;;;;10.82;7.67;;;17.60;92.00;;;;;;1905304;75;21084;-53
2022/10/19 09:52:57;;;;;;;9.80;7.42;;;17.70;91.90;;;;;;1905217;75;21035;-52
2022/10/19 09:55:38;;;;;;;8.90;6.80;;;17.70;91.90;;;;;;1905198;75;21011;-55
2022/10/19 09:58:16;;;;;;;9.00;7.33;;;17.80;92.10;;;;;;1905258;75;21007;-54
2022/10/19 10:00:50;;;;;;;10.08;7.58;;;17.80;91.80;;;;;;1905383;75;21032;-54
2022/10/19 10:03:28;;;;;;;7.67;6.40;;;17.80;91.80;;;;;;1905429;74;21112;-56
2022/10/19 10:06:09;;;;;;;11.15;6.83;;;17.90;91.70;;;;;;1905301;75;21019;-54
2022/10/19 10:08:46;;;;;;;10.15;7.45;;;17.90;91.60;;;;;;1904534;74;21015;-55
2022/10/19 10:11:24;;;;;;;11.00;7.87;;;17.90;91.50;;;;;;1905161;75;21015;-56
2022/10/19 10:13:55;;;;;;;12.07;7.50;;;18.00;91.40;;;;;;1905282;75;21011;-55
2022/10/19 10:16:28;;;;;;;9.90;8.13;;;18.10;91.40;;;;;;1905275;75;21082;-54
2022/10/19 10:18:59;;;;;;;21.85;8.30;;;18.10;91.30;;;;;;1905273;75;21011;-55
2022/10/19 10:21:33;;;;;;;11.30;7.75;;;18.20;91.40;;;;;;1905307;75;21031;-56
2022/10/19 10:24:07;;;;;;;12.57;6.90;;;18.20;91.30;;;;;;1905623;75;21012;-54
2022/10/19 10:26:42;;;;;;;9.18;6.25;;;18.30;91.30;;;;;;1904728;74;21136;-54
2022/10/19 10:29:21;;;;;;;;;;;18.30;91.20;;;;;;1924912;74;21538;-54
2022/10/19 10:32:10;;;;;;;12.88;7.65;;;18.40;91.10;;;;;;1924609;74;20144;-55
2022/10/19 10:34:51;;;;;;;15.28;7.40;;;18.40;91.10;;;;;;1924549;74;21066;-54
2022/10/19 10:37:25;;;;;;;10.82;7.65;;;18.50;91.10;;;;;;1924387;74;20987;-55
2022/10/19 10:39:56;;;;;;;8.83;5.90;;;18.50;91.00;;;;;;1924805;74;21014;-56
2022/10/19 10:42:31;;;;;;;7.58;6.53;;;18.60;90.90;;;;;;1924527;74;20999;-54
2022/10/19 10:45:00;;;;;;;7.35;6.45;;;18.70;90.90;;;;;;1922498;74;21042;-57
2022/10/19 10:47:30;;;;;;;7.87;5.58;;;18.70;90.70;;;;;;1924411;74;21066;-56
2022/10/19 10:50:02;;;;;;;11.35;6.00;;;18.80;90.60;;;;;;1924423;74;21081;-54
2022/10/19 10:52:31;;;;;;;16.87;6.25;;;18.80;90.50;;;;;;1924503;74;21449;-56
2022/10/19 10:55:12;;;;;;;7.58;5.80;;;18.90;90.50;;;;;;1924726;74;21108;-55
2022/10/19 10:57:44;;;;;;;7.58;5.97;;;18.90;90.50;;;;;;1924737;74;21030;-56
2022/10/19 11:00:18;;;;;;;13.35;6.97;;;18.90;90.40;;;;;;1923689;74;21516;-55
2022/10/19 11:03:18;;;;;;;8.00;5.75;;;19.00;90.50;;;;;;1924673;74;21463;-56
2022/10/19 11:05:49;;;;;;;10.75;6.42;;;19.10;90.20;;;;;;1924677;74;21030;-55
2022/10/19 11:08:33;;;;;;;8.58;5.78;;;19.10;90.10;;;;;;1924483;74;21100;-56
2022/10/19 11:11:07;;;;;;;6.60;5.42;;;19.20;90.40;;;;;;1924600;74;21034;-55
2022/10/19 11:13:42;;;;;;;9.08;5.30;;;19.20;89.60;;;;;;1924700;74;21093;-56
2022/10/19 11:16:26;;;;;;;11.55;7.35;;;19.30;89.50;;;;;;1924742;74;21535;-55
2022/10/19 11:19:03;;;;;;;9.25;5.95;;;19.30;89.80;;;;;;1924569;74;20995;-56
2022/10/19 11:21:41;;;;;;;10.38;6.00;;;19.30;89.70;;;;;;1924214;74;21093;-55
2022/10/19 11:24:33;;;;;;;10.15;5.95;;;19.30;89.40;;;;;;1924627;74;21108;-55
2022/10/19 11:27:34;;;;;;;12.47;6.58;;;19.40;89.00;;;;;;1924813;74;21018;-56
2022/10/19 11:30:21;;;;;;;11.83;5.83;;;19.40;89.10;;;;;;1927062;74;21062;-56
2022/10/19 11:32:56;;;;;;;13.32;8.35;;;19.50;89.20;;;;;;1926965;74;21077;-55
2022/10/19 11:35:38;;;;;;;;;;;19.40;89.00;;;;;;1929908;74;21027;-52
2022/10/19 11:38:22;;;;;;;8.00;6.45;;;19.50;88.70;;;;;;1926403;74;20100;-55
2022/10/19 11:40:53;;;;;;;6.77;6.07;;;19.50;88.60;;;;;;1926920;74;21069;-55
2022/10/19 11:43:28;;;;;;;13.75;6.47;;;19.50;88.70;;;;;;1926891;74;21097;-56
2022/10/19 11:46:06;;;;;;;9.55;6.12;;;19.50;88.50;;;;;;1906481;74;21019;-56
2022/10/19 11:48:53;;;;;;;8.20;6.12;;;19.50;88.50;;;;;;1926956;74;21045;-56
2022/10/19 11:51:48;;;;;;;8.23;5.70;;;19.50;88.20;;;;;;1926384;74;21042;-55
2022/10/19 11:54:32;;;;;;;12.40;5.60;;;19.60;87.90;;;;;;1927051;74;21070;-54
2022/10/19 11:57:16;;;;;;;5.87;4.90;;;19.60;87.80;;;;;;1926976;74;21023;-55
2022/10/19 12:00:03;;;;;;;7.40;5.25;;;19.60;87.60;;;;;;1926937;74;21069;-54
2022/10/19 12:02:48;;;;;;;8.98;5.95;;;19.60;87.40;;;;;;1926501;74;21055;-53
2022/10/19 12:05:23;;;;;;;8.50;7.03;;;19.60;87.40;;;;;;1925949;74;21007;-55
2022/10/19 12:08:01;;;;;;;7.62;5.95;;;19.60;87.10;;;;;;1926897;74;21011;-54
2022/10/19 12:10:59;;;;;;;7.53;5.83;;;19.60;86.60;;;;;;1926909;74;21485;-53
2022/10/19 12:13:36;;;;;;;7.50;5.53;;;19.70;86.60;;;;;;1926912;74;21041;-56
2022/10/19 12:16:07;;;;;;;12.75;7.90;;;19.70;86.20;;;;;;1922727;74;21094;-56
2022/10/19 12:18:42;;;;;;;8.35;5.78;;;19.80;86.50;;;;;;1927021;74;21074;-57
2022/10/19 12:21:26;;;;;;;14.05;7.72;;;19.80;86.10;;;;;;1927154;74;21100;-56
2022/10/19 12:23:56;;;;;;;39.10;26.65;;;19.80;86.00;;;;;;1927011;74;21060;-56
2022/10/19 12:26:27;;;;;;;12.25;8.88;;;19.80;85.60;;;;;;1926918;74;21105;-57
2022/10/19 12:29:02;;;;;;;17.57;8.85;;;19.90;85.40;;;;;;1926297;74;21058;-56
2022/10/19 12:31:32;;;;;;;8.28;6.35;;;19.90;85.20;;;;;;1923988;74;21007;-57
2022/10/19 12:34:04;;;;;;;10.23;6.92;;;19.90;85.20;;;;;;1924823;74;21019;-57
2022/10/19 12:36:48;;;;;;;8.40;6.05;;;19.90;85.00;;;;;;1924513;74;21453;-55
2022/10/19 12:39:22;;;;;;;7.17;5.90;;;19.90;84.90;;;;;;1924871;74;20979;-56
2022/10/19 12:42:12;;;;;;;5.62;5.05;;;19.90;84.40;;;;;;1924940;74;21519;-58
2022/10/19 12:45:08;;;;;;;3.22;2.92;;;19.90;84.10;;;;;;1924214;74;21421;-57
2022/10/19 12:47:37;;;;;;;9.05;4.05;;;19.90;82.50;;;;;;1924539;74;21488;-57
2022/10/19 12:50:06;;;;;;;4.35;3.95;;;20.00;82.10;;;;;;1924586;74;21012;-57
2022/10/19 12:52:44;;;;;;;6.65;4.60;;;20.00;81.40;;;;;;1924634;74;21010;-57
2022/10/19 12:55:33;;;;;;;11.93;5.60;;;20.10;81.00;;;;;;1924604;74;21101;-57
2022/10/19 12:58:01;;;;;;;7.15;5.90;;;20.10;82.10;;;;;;1924123;74;21112;-56
2022/10/19 13:00:33;;;;;;;8.55;6.00;;;20.10;82.50;;;;;;1924645;74;20994;-57
2022/10/19 13:03:05;;;;;;;9.45;6.20;;;20.20;82.70;;;;;;1924605;74;21010;-57
2022/10/19 13:05:35;;;;;;;9.33;5.25;;;20.20;82.90;;;;;;1924704;74;21082;-55
2022/10/19 13:08:06;;;;;;;12.50;4.78;;;20.10;82.90;;;;;;1924628;74;21011;-57